Terminal Aerodrome Forecast
Issued by NWS Topeka, KS

Home | Current Version | Previous Version | Text Only | Print | Product List | Glossary Off
Versions: 1 2 3 4 5 6 7 8 9 10 11 12 13 14 15 16 17 18 19 20 21 22 23

000
FTUS43 KTOP 292112 AAB
TAFTOP
TAF AMD
KTOP 292112Z 2921/3018 08012G35KT 2SM TSRA BKN011CB
      TEMPO 2921/2923 3SM -TSRA BKN008CB
     FM300300 04008KT 5SM -SHRA BR OVC007
     FM300700 36008KT 3SM BR VCSH OVC003=

USA.gov is the U.S. government's official web portal to all federal, state and local government web resources and services.